createdAt,value
2022-12-18T00:02:13.689Z,80.80
2022-12-18T00:04:41.660Z,80.56
2022-12-18T00:07:08.553Z,81.01
2022-12-18T00:09:39.778Z,80.89
2022-12-18T00:14:45.383Z,80.71
2022-12-18T00:17:12.312Z,80.99
2022-12-18T00:19:38.897Z,80.60
2022-12-18T00:22:07.200Z,80.07
2022-12-18T00:24:33.846Z,80.47
2022-12-18T00:27:00.430Z,80.09
2022-12-18T00:29:27.024Z,80.58
2022-12-18T00:31:53.648Z,80.41
2022-12-18T00:34:20.357Z,80.64
2022-12-18T00:36:48.866Z,80.70
2022-12-18T00:39:16.882Z,80.76
2022-12-18T00:41:43.487Z,80.62
2022-12-18T00:44:11.868Z,81.20
2022-12-18T00:46:38.798Z,81.14
2022-12-18T00:49:05.714Z,81.20
2022-12-18T00:51:32.820Z,81.32
2022-12-18T00:53:59.469Z,81.11
2022-12-18T00:56:27.816Z,80.76
2022-12-18T00:58:54.876Z,80.96
2022-12-18T01:01:21.820Z,80.93
2022-12-18T01:03:48.496Z,80.61
2022-12-18T01:06:16.519Z,80.75
2022-12-18T01:08:43.463Z,80.64
2022-12-18T01:11:11.902Z,80.88
2022-12-18T01:13:40.968Z,80.73
2022-12-18T01:16:08.328Z,80.49
2022-12-18T01:18:35.243Z,80.78
2022-12-18T01:21:01.950Z,80.60
2022-12-18T01:23:28.518Z,80.43
2022-12-18T01:25:55.116Z,80.93
2022-12-18T01:28:21.731Z,81.09
2022-12-18T01:30:49.757Z,80.99
2022-12-18T01:33:16.349Z,81.07
2022-12-18T01:35:43.375Z,81.24
2022-12-18T01:38:10.190Z,81.20
2022-12-18T01:40:36.952Z,81.06
2022-12-18T01:43:03.613Z,80.87
2022-12-18T01:45:31.299Z,81.04
2022-12-18T01:48:01.954Z,80.92
2022-12-18T01:50:33.552Z,81.13
2022-12-18T01:53:02.901Z,81.00
2022-12-18T01:55:33.131Z,81.24
2022-12-18T01:58:01.242Z,80.98
2022-12-18T02:00:28.817Z,81.01
2022-12-18T02:02:55.924Z,81.21
2022-12-18T02:05:37.088Z,81.29
2022-12-18T02:08:10.700Z,81.09
2022-12-18T02:10:42.316Z,81.41
2022-12-18T02:13:15.348Z,81.04
2022-12-18T02:15:50.089Z,81.28
2022-12-18T02:18:21.520Z,81.15
2022-12-18T02:20:59.700Z,81.36
2022-12-18T02:23:46.618Z,81.58
2022-12-18T02:26:28.375Z,81.32
2022-12-18T02:28:59.848Z,81.42
2022-12-18T02:31:30.766Z,81.29
2022-12-18T02:34:01.352Z,81.21
2022-12-18T02:36:29.741Z,81.03
2022-12-18T02:38:57.420Z,81.24
2022-12-18T02:41:30.731Z,81.03
2022-12-18T02:43:59.441Z,81.02
2022-12-18T02:46:33.268Z,81.61
2022-12-18T02:49:07.847Z,81.66
2022-12-18T02:51:41.540Z,81.25
2022-12-18T02:54:15.092Z,81.27
2022-12-18T02:56:50.523Z,81.23
2022-12-18T02:59:20.548Z,81.07
2022-12-18T03:01:53.951Z,81.37
2022-12-18T03:04:27.356Z,81.13
2022-12-18T03:06:57.882Z,81.25
2022-12-18T03:09:30.595Z,81.12
2022-12-18T03:12:05.261Z,81.01
2022-12-18T03:14:35.116Z,81.01
2022-12-18T03:17:05.798Z,81.17
2022-12-18T03:19:33.897Z,81.08
2022-12-18T03:22:03.930Z,81.45
2022-12-18T03:24:32.559Z,81.60
2022-12-18T03:27:03.950Z,81.81
2022-12-18T03:29:37.073Z,81.63
2022-12-18T03:32:06.278Z,81.80
2022-12-18T03:34:36.265Z,81.92
2022-12-18T03:37:04.659Z,82.00
2022-12-18T03:39:31.591Z,81.94
2022-12-18T03:42:06.846Z,82.16
2022-12-18T03:44:41.347Z,81.85
2022-12-18T03:47:13.013Z,82.23
2022-12-18T03:49:44.057Z,82.21
2022-12-18T03:52:15.546Z,82.03
2022-12-18T03:54:43.640Z,82.03
2022-12-18T03:57:15.500Z,82.47
2022-12-18T03:59:43.968Z,82.43
2022-12-18T04:02:11.228Z,82.51
2022-12-18T04:04:40.775Z,82.63
2022-12-18T04:07:08.366Z,82.33
2022-12-18T04:09:37.504Z,82.57
2022-12-18T04:12:04.412Z,82.38
2022-12-18T04:14:32.541Z,82.47
2022-12-18T04:16:59.160Z,82.77
2022-12-18T04:19:25.762Z,82.61
2022-12-18T04:21:52.297Z,82.46
2022-12-18T04:24:19.025Z,82.55
2022-12-18T04:26:45.662Z,82.62
2022-12-18T04:29:12.725Z,82.22
2022-12-18T04:31:40.693Z,82.29
2022-12-18T04:34:07.404Z,82.63
2022-12-18T04:36:34.040Z,81.93
2022-12-18T04:39:00.663Z,82.08
2022-12-18T04:41:27.297Z,82.39
2022-12-18T04:43:53.930Z,82.51
2022-12-18T04:46:20.773Z,82.68
2022-12-18T04:48:48.796Z,82.52
2022-12-18T04:51:15.507Z,82.59
2022-12-18T04:53:42.522Z,82.64
2022-12-18T04:56:12.093Z,82.74
2022-12-18T04:58:40.824Z,82.32
2022-12-18T05:01:08.118Z,82.46
2022-12-18T05:03:36.218Z,82.52
2022-12-18T05:06:04.761Z,82.18
2022-12-18T05:08:31.637Z,81.83
2022-12-18T05:11:01.715Z,81.79
2022-12-18T05:13:28.405Z,81.89
2022-12-18T05:15:56.097Z,82.03
2022-12-18T05:18:23.547Z,82.26
2022-12-18T05:20:50.355Z,82.40
2022-12-18T05:23:18.683Z,82.10
2022-12-18T05:25:48.246Z,81.91
2022-12-18T05:28:14.814Z,82.15
2022-12-18T05:30:41.376Z,82.32
2022-12-18T05:33:08.016Z,82.03
2022-12-18T05:35:34.696Z,81.93
2022-12-18T05:38:01.265Z,82.01
2022-12-18T05:40:29.244Z,81.89
2022-12-18T05:42:56.951Z,82.01
2022-12-18T05:45:23.667Z,82.05
2022-12-18T05:47:50.255Z,82.06
2022-12-18T05:50:16.978Z,82.12
2022-12-18T05:52:43.541Z,81.97
2022-12-18T05:55:10.166Z,81.76
2022-12-18T05:57:38.147Z,82.02
2022-12-18T06:00:05.653Z,82.19
2022-12-18T06:02:32.283Z,81.93
2022-12-18T06:04:59.149Z,81.94
2022-12-18T06:07:25.727Z,82.28
2022-12-18T06:09:52.298Z,82.04
2022-12-18T06:12:18.848Z,81.93
2022-12-18T06:14:46.843Z,81.95
2022-12-18T06:17:13.593Z,81.86
2022-12-18T06:19:40.195Z,82.14
2022-12-18T06:22:06.824Z,82.23
2022-12-18T06:24:33.402Z,82.33
2022-12-18T06:27:00.494Z,82.20
2022-12-18T06:29:27.122Z,82.33
2022-12-18T06:31:55.149Z,82.60
2022-12-18T06:34:21.788Z,82.61
2022-12-18T06:36:48.377Z,82.67
2022-12-18T06:39:14.983Z,82.55
2022-12-18T06:41:41.592Z,82.79
2022-12-18T06:44:08.178Z,82.79
2022-12-18T06:46:34.912Z,82.65
2022-12-18T06:49:02.844Z,82.80
2022-12-18T06:51:29.466Z,82.91
2022-12-18T06:53:56.123Z,82.65
2022-12-18T06:56:22.994Z,82.76
2022-12-18T06:58:49.576Z,82.77
2022-12-18T07:01:16.264Z,82.43
2022-12-18T07:03:44.294Z,82.59
2022-12-18T07:06:17.340Z,82.96
2022-12-18T07:08:44.174Z,82.82
2022-12-18T07:11:10.802Z,82.64
2022-12-18T07:13:37.746Z,82.68
2022-12-18T07:16:16.082Z,82.90
2022-12-18T07:18:45.556Z,83.11
2022-12-18T07:21:14.192Z,83.04
2022-12-18T07:23:42.838Z,83.11
2022-12-18T07:26:11.767Z,83.13
2022-12-18T07:28:39.867Z,83.19
2022-12-18T07:31:08.793Z,83.12
2022-12-18T07:33:35.642Z,83.40
2022-12-18T07:36:02.998Z,83.21
2022-12-18T07:38:29.624Z,83.15
2022-12-18T07:41:02.890Z,83.36
2022-12-18T07:43:29.643Z,83.35
2022-12-18T07:45:56.391Z,83.71
2022-12-18T07:48:23.121Z,83.74
2022-12-18T07:50:49.825Z,83.72
2022-12-18T07:53:16.749Z,83.65
2022-12-18T07:56:17.824Z,83.97
2022-12-18T07:58:31.933Z,84.45
2022-12-18T08:01:04.293Z,84.36
2022-12-18T08:03:31.198Z,84.55
2022-12-18T08:06:00.373Z,84.19
2022-12-18T08:08:27.058Z,84.37
2022-12-18T08:10:53.875Z,84.29
2022-12-18T08:13:20.560Z,84.50
2022-12-18T08:15:56.706Z,84.25
2022-12-18T08:18:23.454Z,84.50
2022-12-18T08:20:50.022Z,84.51
2022-12-18T08:23:16.654Z,84.31
2022-12-18T08:25:43.275Z,84.10
2022-12-18T08:28:09.873Z,84.35
2022-12-18T08:30:36.823Z,84.47
2022-12-18T08:33:05.493Z,84.23
2022-12-18T08:35:38.741Z,84.11
2022-12-18T08:38:07.786Z,83.82
2022-12-18T08:40:34.341Z,83.92
2022-12-18T08:43:01.274Z,83.60
2022-12-18T08:45:28.553Z,83.54
2022-12-18T08:47:55.142Z,83.68
2022-12-18T08:50:23.170Z,83.65
2022-12-18T08:52:49.747Z,83.24
2022-12-18T08:55:16.363Z,83.61
2022-12-18T08:57:42.869Z,83.29
2022-12-18T09:00:10.666Z,83.13
2022-12-18T09:02:37.332Z,83.35
2022-12-18T09:05:04.636Z,83.19
2022-12-18T09:07:32.578Z,83.47
2022-12-18T09:09:59.273Z,83.05
2022-12-18T09:12:26.019Z,83.65
2022-12-18T09:14:52.712Z,83.58
2022-12-18T09:17:19.312Z,83.65
2022-12-18T09:19:45.923Z,84.02
2022-12-18T09:25:36.836Z,83.40
2022-12-18T09:28:04.950Z,83.06
2022-12-18T09:30:31.918Z,83.35
2022-12-18T09:32:58.897Z,82.63
2022-12-18T09:35:25.484Z,82.87
2022-12-18T09:37:52.064Z,83.25
2022-12-18T09:40:21.928Z,83.20
2022-12-18T09:42:54.943Z,82.70
2022-12-18T09:45:22.207Z,82.42
2022-12-18T09:47:52.288Z,82.56
2022-12-18T09:50:25.723Z,82.35
2022-12-18T09:52:56.708Z,82.55
2022-12-18T09:55:35.176Z,82.62
2022-12-18T09:58:08.496Z,82.55
2022-12-18T10:00:36.060Z,82.58
2022-12-18T10:03:09.745Z,82.62
2022-12-18T10:05:48.969Z,82.48
2022-12-18T10:08:23.199Z,81.77
2022-12-18T10:10:52.699Z,81.97
2022-12-18T10:13:31.288Z,81.57
2022-12-18T10:16:24.277Z,81.58
2022-12-18T10:19:22.497Z,81.67
2022-12-18T10:21:57.219Z,81.04
2022-12-18T10:24:29.805Z,81.15
2022-12-18T10:27:00.844Z,81.32
2022-12-18T10:29:28.936Z,81.42
2022-12-18T10:31:55.468Z,81.35
2022-12-18T10:34:22.032Z,81.07
2022-12-18T10:36:48.642Z,81.63
2022-12-18T10:39:17.337Z,80.97
2022-12-18T10:41:43.818Z,81.41
2022-12-18T10:44:18.153Z,81.31
2022-12-18T10:46:47.732Z,81.44
2022-12-18T10:49:24.212Z,81.32
2022-12-18T10:51:52.366Z,81.69
2022-12-18T10:54:22.705Z,81.41
2022-12-18T10:56:49.632Z,81.34
2022-12-18T10:59:18.016Z,81.02
2022-12-18T11:01:52.216Z,80.90
2022-12-18T11:04:21.966Z,81.20
2022-12-18T11:07:00.282Z,80.66
2022-12-18T11:09:28.762Z,81.08
2022-12-18T11:11:57.748Z,80.64
2022-12-18T11:14:26.629Z,80.99
2022-12-18T11:19:43.319Z,80.67
2022-12-18T11:22:21.852Z,80.94
2022-12-18T11:25:29.417Z,81.03
2022-12-18T11:27:49.396Z,81.24
2022-12-18T11:30:23.047Z,81.17
2022-12-18T11:32:53.153Z,81.33
2022-12-18T11:35:26.659Z,81.34
2022-12-18T11:37:58.819Z,80.89
2022-12-18T11:40:39.287Z,81.18
2022-12-18T11:43:11.495Z,81.41
2022-12-18T11:45:44.247Z,81.30
2022-12-18T11:48:17.899Z,81.03
2022-12-18T11:50:49.759Z,81.21
2022-12-18T11:53:16.785Z,81.69
2022-12-18T11:55:54.148Z,81.66
2022-12-18T11:58:35.127Z,82.21
2022-12-18T12:01:11.132Z,81.84
2022-12-18T12:03:44.327Z,82.35
2022-12-18T12:06:19.835Z,82.14
2022-12-18T12:09:01.886Z,81.99
2022-12-18T12:11:40.794Z,81.94
2022-12-18T12:14:23.541Z,81.49
2022-12-18T12:16:57.757Z,82.02
2022-12-18T12:19:38.373Z,81.87
2022-12-18T12:22:14.762Z,81.29
2022-12-18T12:24:54.193Z,81.35
2022-12-18T12:27:31.492Z,81.73
2022-12-18T12:30:04.004Z,82.14
2022-12-18T12:32:46.173Z,81.82
2022-12-18T12:35:28.780Z,81.01
2022-12-18T12:38:06.838Z,81.75
2022-12-18T12:40:53.422Z,82.06
2022-12-18T12:43:32.003Z,81.88
2022-12-18T12:46:04.590Z,81.99
2022-12-18T12:48:43.780Z,82.30
2022-12-18T12:51:17.867Z,82.03
2022-12-18T12:53:46.779Z,82.40
2022-12-18T12:56:17.066Z,82.06
2022-12-18T12:58:53.412Z,81.98
2022-12-18T13:01:29.530Z,82.54
2022-12-18T13:04:08.093Z,82.22
2022-12-18T13:12:19.739Z,82.21
2022-12-18T13:13:43.747Z,82.62
2022-12-18T13:13:44.928Z,82.63
2022-12-18T13:14:46.523Z,82.49
2022-12-18T13:17:31.180Z,82.18
2022-12-18T13:20:07.904Z,82.79
2022-12-18T13:22:37.642Z,82.56
2022-12-18T13:25:34.363Z,82.60
2022-12-18T13:28:09.739Z,82.88
2022-12-18T13:30:49.726Z,83.11
2022-12-18T13:34:24.537Z,82.80
2022-12-18T13:36:37.189Z,82.67
2022-12-18T13:39:29.965Z,82.83
2022-12-18T13:42:37.050Z,82.79
2022-12-18T13:45:42.522Z,82.65
2022-12-18T13:48:18.543Z,82.92
2022-12-18T13:50:58.601Z,83.36
2022-12-18T13:53:28.756Z,82.65
2022-12-18T13:55:55.966Z,82.63
2022-12-18T13:58:22.601Z,82.83
2022-12-18T14:00:50.823Z,83.10
2022-12-18T14:03:22.867Z,82.87
2022-12-18T14:05:55.447Z,83.03
2022-12-18T14:08:22.332Z,83.21
2022-12-18T14:10:51.419Z,82.89
2022-12-18T14:13:24.281Z,83.13
2022-12-18T14:15:52.826Z,83.18
2022-12-18T14:18:25.413Z,83.28
2022-12-18T14:20:53.943Z,83.93
2022-12-18T14:23:32.845Z,83.66
2022-12-18T14:26:05.481Z,83.14
2022-12-18T14:28:32.604Z,83.07
2022-12-18T14:31:00.781Z,82.77
2022-12-18T14:33:28.447Z,82.99
2022-12-18T14:35:58.307Z,83.05
2022-12-18T14:38:28.469Z,83.25
2022-12-18T14:40:56.995Z,83.32
2022-12-18T14:43:23.774Z,83.32
2022-12-18T14:45:51.855Z,83.54
2022-12-18T14:48:23.651Z,83.48
2022-12-18T14:51:00.168Z,83.34
2022-12-18T14:53:36.161Z,83.55
2022-12-18T14:56:04.240Z,83.57
2022-12-18T14:58:31.145Z,83.77
2022-12-18T15:00:57.929Z,83.81
2022-12-18T15:03:26.122Z,84.07
2022-12-18T15:05:53.777Z,83.60
2022-12-18T15:08:35.025Z,83.73
2022-12-18T15:11:01.686Z,83.85
2022-12-18T15:13:29.145Z,83.54
2022-12-18T15:15:57.682Z,83.62
2022-12-18T15:18:32.966Z,83.81
2022-12-18T15:21:07.972Z,84.00
2022-12-18T15:23:37.332Z,84.09
2022-12-18T15:26:09.585Z,83.84
2022-12-18T15:28:40.416Z,83.94
2022-12-18T15:31:23.375Z,84.03
2022-12-18T15:34:10.874Z,83.60
2022-12-18T15:36:37.549Z,84.00
2022-12-18T15:39:06.787Z,83.99
2022-12-18T15:41:36.229Z,84.32
2022-12-18T15:44:04.500Z,84.15
2022-12-18T15:46:31.169Z,84.15
2022-12-18T15:49:02.388Z,84.29
2022-12-18T15:51:35.407Z,84.30
2022-12-18T15:54:03.996Z,84.25
2022-12-18T15:56:30.671Z,84.21
2022-12-18T15:58:57.995Z,84.56
2022-12-18T16:01:27.287Z,84.54
2022-12-18T16:03:54.091Z,84.50
2022-12-18T16:06:20.772Z,84.63
2022-12-18T16:08:49.244Z,84.55
2022-12-18T16:11:22.681Z,84.39
2022-12-18T16:13:49.319Z,84.68
2022-12-18T16:16:16.988Z,84.52
2022-12-18T16:18:43.615Z,84.38
2022-12-18T16:21:10.433Z,84.34
2022-12-18T16:23:37.236Z,84.41
2022-12-18T16:26:05.673Z,84.71
2022-12-18T16:28:32.569Z,84.49
2022-12-18T16:31:00.062Z,84.77
2022-12-18T16:33:26.777Z,84.70
2022-12-18T16:35:53.878Z,84.30
2022-12-18T16:38:20.677Z,84.41
2022-12-18T16:40:47.286Z,84.23
2022-12-18T16:43:15.194Z,84.18
2022-12-18T16:45:41.838Z,84.34
2022-12-18T16:48:08.510Z,84.55
2022-12-18T16:50:35.214Z,84.16
2022-12-18T16:53:01.782Z,84.28
2022-12-18T16:55:28.412Z,84.10
2022-12-18T16:57:55.010Z,83.76
2022-12-18T17:00:23.022Z,83.90
2022-12-18T17:02:49.914Z,83.68
2022-12-18T17:05:16.793Z,83.93
2022-12-18T17:07:43.428Z,83.82
2022-12-18T17:10:10.310Z,83.90
2022-12-18T17:12:37.003Z,83.95
2022-12-18T17:15:04.215Z,83.96
2022-12-18T17:17:32.171Z,84.01
2022-12-18T17:19:58.884Z,83.48
2022-12-18T17:22:25.453Z,83.96
2022-12-18T17:24:52.050Z,84.12
2022-12-18T17:27:18.799Z,84.03
2022-12-18T17:29:48.238Z,83.55
2022-12-18T17:32:16.084Z,83.95
2022-12-18T17:34:44.230Z,83.90
2022-12-18T17:37:10.890Z,83.84
2022-12-18T17:39:37.610Z,83.65
2022-12-18T17:42:05.310Z,83.66
2022-12-18T17:44:32.418Z,83.77
2022-12-18T17:46:59.130Z,83.59
2022-12-18T17:49:25.734Z,83.74
2022-12-18T17:51:53.753Z,83.78
2022-12-18T17:54:20.790Z,83.65
2022-12-18T17:56:47.520Z,83.46
2022-12-18T17:59:14.681Z,83.20
2022-12-18T18:01:44.824Z,83.72
2022-12-18T18:04:12.572Z,83.32
2022-12-18T18:06:39.582Z,83.72
2022-12-18T18:09:09.242Z,83.49
2022-12-18T18:11:43.108Z,83.76
2022-12-18T18:14:13.689Z,83.54
2022-12-18T18:16:42.190Z,83.82
2022-12-18T18:19:11.142Z,83.33
2022-12-18T18:21:39.314Z,83.78
2022-12-18T18:24:09.385Z,83.78
2022-12-18T18:26:37.161Z,83.83
2022-12-18T18:29:05.885Z,84.16
2022-12-18T18:31:33.805Z,83.93
2022-12-18T18:34:03.765Z,83.85
2022-12-18T18:36:30.496Z,83.91
2022-12-18T18:38:59.535Z,83.67
2022-12-18T18:41:27.761Z,83.98
2022-12-18T18:43:55.203Z,83.99
2022-12-18T18:46:22.394Z,83.79
2022-12-18T18:48:49.380Z,83.60
2022-12-18T18:51:31.435Z,83.56
2022-12-18T18:54:01.427Z,83.57
2022-12-18T18:59:16.605Z,83.64
2022-12-18T19:01:44.066Z,83.96
2022-12-18T19:04:11.225Z,83.66
2022-12-18T19:06:37.829Z,83.85
2022-12-18T19:09:05.813Z,84.08
2022-12-18T19:11:36.369Z,83.87
2022-12-18T19:14:04.783Z,83.83
2022-12-18T19:16:32.873Z,83.87
2022-12-18T19:19:01.863Z,84.26
2022-12-18T19:21:29.535Z,83.81
2022-12-18T19:23:59.155Z,84.13
2022-12-18T19:26:28.662Z,84.18
2022-12-18T19:29:01.985Z,83.89
2022-12-18T19:31:34.750Z,83.90
2022-12-18T19:34:11.978Z,83.70
2022-12-18T19:36:40.894Z,83.76
2022-12-18T19:39:10.216Z,83.78
2022-12-18T19:41:37.078Z,83.65
2022-12-18T19:44:07.697Z,83.34
2022-12-18T19:46:35.769Z,83.26
2022-12-18T19:49:02.744Z,83.19
2022-12-18T19:51:31.273Z,82.94
2022-12-18T19:54:01.244Z,83.00
2022-12-18T19:56:30.403Z,83.18
2022-12-18T19:58:57.727Z,83.25
2022-12-18T20:01:27.108Z,83.08
2022-12-18T20:03:55.498Z,83.10
2022-12-18T20:06:26.360Z,82.95
2022-12-18T20:08:57.989Z,83.23
2022-12-18T20:11:27.101Z,83.07
2022-12-18T20:13:53.653Z,83.14
2022-12-18T20:16:20.324Z,83.39
2022-12-18T20:18:48.629Z,83.11
2022-12-18T20:21:16.174Z,83.16
2022-12-18T20:23:43.299Z,83.18
2022-12-18T20:26:10.596Z,83.30
2022-12-18T20:28:37.783Z,82.95
2022-12-18T20:31:07.248Z,83.05
2022-12-18T20:33:35.711Z,83.02
2022-12-18T20:36:05.737Z,82.78
2022-12-18T20:38:33.086Z,82.95
2022-12-18T20:41:00.752Z,82.94
2022-12-18T20:43:27.344Z,82.76
2022-12-18T20:46:00.679Z,82.98
2022-12-18T20:48:27.904Z,82.69
2022-12-18T20:50:57.848Z,82.60
2022-12-18T20:53:27.193Z,82.85
2022-12-18T20:55:53.805Z,82.64
2022-12-18T20:58:20.745Z,82.82
2022-12-18T21:00:47.474Z,82.78
2022-12-18T21:03:14.310Z,82.68
2022-12-18T21:05:40.951Z,82.82
2022-12-18T21:08:09.607Z,82.87
2022-12-18T21:10:39.606Z,82.43
2022-12-18T21:13:07.864Z,82.79
2022-12-18T21:15:35.363Z,82.62
2022-12-18T21:18:01.982Z,82.70
2022-12-18T21:20:28.896Z,82.60
2022-12-18T21:22:55.586Z,82.33
2022-12-18T21:25:25.801Z,82.58
2022-12-18T21:27:53.806Z,82.30
2022-12-18T21:30:20.448Z,82.53
2022-12-18T21:32:47.202Z,82.31
2022-12-18T21:35:13.859Z,82.08
2022-12-18T21:37:40.419Z,82.36
2022-12-18T21:40:08.454Z,82.27
2022-12-18T21:42:35.309Z,82.26
2022-12-18T21:45:03.750Z,82.00
2022-12-18T21:47:30.393Z,82.27
2022-12-18T21:49:56.974Z,82.35
2022-12-18T21:52:32.297Z,81.64
2022-12-18T21:55:07.835Z,82.11
2022-12-18T21:57:36.277Z,82.02
2022-12-18T22:00:05.424Z,82.17
2022-12-18T22:02:32.179Z,82.05
2022-12-18T22:04:59.044Z,82.33
2022-12-18T22:07:25.933Z,82.05
2022-12-18T22:09:52.493Z,82.33
2022-12-18T22:12:19.058Z,82.44
2022-12-18T22:14:45.692Z,82.21
2022-12-18T22:17:13.697Z,82.17
2022-12-18T22:19:43.238Z,82.31
2022-12-18T22:22:10.315Z,82.17
2022-12-18T22:24:36.955Z,82.11
2022-12-18T22:27:03.653Z,82.36
2022-12-18T22:29:30.807Z,82.03
2022-12-18T22:31:59.339Z,82.41
2022-12-18T22:34:27.592Z,82.15
2022-12-18T22:36:54.661Z,81.92
2022-12-18T22:39:23.320Z,81.89
2022-12-18T22:41:51.235Z,81.95
2022-12-18T22:44:18.342Z,81.75
2022-12-18T22:46:46.850Z,82.03
2022-12-18T22:49:19.057Z,81.80
2022-12-18T22:51:47.943Z,81.74
2022-12-18T22:54:15.025Z,81.10
2022-12-18T22:56:41.673Z,81.62
2022-12-18T22:59:08.663Z,81.99
2022-12-18T23:01:35.492Z,81.61
2022-12-18T23:04:03.503Z,81.69
2022-12-18T23:06:30.342Z,81.70
2022-12-18T23:08:58.337Z,81.27
2022-12-18T23:11:26.016Z,81.67
2022-12-18T23:13:52.890Z,81.53
2022-12-18T23:16:23.373Z,81.68
2022-12-18T23:18:54.054Z,81.26
2022-12-18T23:21:21.837Z,81.66
2022-12-18T23:23:49.754Z,81.32
2022-12-18T23:26:19.941Z,81.69
2022-12-18T23:28:46.657Z,81.77
2022-12-18T23:31:15.620Z,81.41
2022-12-18T23:33:44.287Z,81.41
2022-12-18T23:36:11.775Z,81.36
2022-12-18T23:38:38.697Z,81.36
2022-12-18T23:41:09.762Z,81.30
2022-12-18T23:43:38.179Z,81.58
2022-12-18T23:46:10.920Z,81.55
2022-12-18T23:48:37.844Z,81.71
2022-12-18T23:51:06.138Z,81.43
2022-12-18T23:53:32.788Z,81.43
2022-12-18T23:56:00.164Z,81.34
2022-12-18T23:58:27.408Z,81.53
